Time;durP1;ratioP1;P1;durP2;ratioP2;P2;SDS_P1;SDS_P2;PMS_P1;PMS_P2;Temp;Humidity;BMP_temperature;BMP_pressure;BME280_temperature;BME280_humidity;BME280_pressure;Samples;Min_cycle;Max_cycle;Signal;HPM_P1;HPM_P2
2021/05/16 00:02:14;;;;;;;1.35;0.80;;;;;;;8.28;90.11;95974.19;4973697;28;20035;-60
2021/05/16 00:04:40;;;;;;;0.90;0.70;;;;;;;8.30;90.27;95971.09;4984787;28;20054;-62
2021/05/16 00:07:05;;;;;;;1.10;0.77;;;;;;;8.45;90.42;95974.88;4974416;28;20456;-62
2021/05/16 00:09:32;;;;;;;1.63;0.75;;;;;;;8.23;88.55;95963.63;4980223;28;20038;-62
2021/05/16 00:11:57;;;;;;;1.10;0.73;;;;;;;8.38;88.92;95956.41;4980725;28;20046;-61
2021/05/16 00:14:23;;;;;;;1.52;0.80;;;;;;;8.27;88.99;95958.22;4974862;28;20639;-61
2021/05/16 00:16:48;;;;;;;0.85;0.60;;;;;;;8.06;89.43;95958.72;4983685;28;20042;-60
2021/05/16 00:19:14;;;;;;;1.42;0.88;;;;;;;7.62;91.42;95957.28;4978345;28;20061;-61
2021/05/16 00:21:39;;;;;;;2.58;0.90;;;;;;;7.50;93.02;95958.25;4985187;28;20454;-61
2021/05/16 00:24:06;;;;;;;1.05;0.80;;;;;;;7.42;95.01;95965.53;4978157;28;20038;-60
2021/05/16 00:26:31;;;;;;;0.80;0.77;;;;;;;7.56;95.11;95970.44;4983938;28;20500;-61
2021/05/16 00:28:56;;;;;;;2.42;0.90;;;;;;;7.67;94.97;95970.63;4983749;28;20246;-60
2021/05/16 00:31:22;;;;;;;2.35;0.90;;;;;;;7.78;94.63;95959.88;4972121;28;20177;-60
2021/05/16 00:33:47;;;;;;;3.85;0.93;;;;;;;7.84;94.53;95966.56;4984863;28;20526;-62
2021/05/16 00:36:13;;;;;;;2.50;0.90;;;;;;;7.71;93.31;95957.81;4977189;28;20118;-63
2021/05/16 00:38:38;;;;;;;1.02;0.70;;;;;;;7.64;92.09;95958.47;4983459;28;20050;-63
2021/05/16 00:41:03;;;;;;;9.55;4.13;;;;;;;7.61;91.28;95959.22;4982093;28;20057;-60
2021/05/16 00:43:29;;;;;;;1.80;1.00;;;;;;;7.56;89.72;95959.53;4965692;28;20050;-64
2021/05/16 00:45:54;;;;;;;1.00;0.70;;;;;;;7.44;91.78;95954.28;4982868;28;20054;-63
2021/05/16 00:48:21;;;;;;;2.45;0.90;;;;;;;7.37;92.32;95954.16;4977961;28;20042;-61
2021/05/16 00:50:48;;;;;;;1.40;0.73;;;;;;;7.38;93.40;95953.00;4982785;28;20050;-62
2021/05/16 00:53:14;;;;;;;1.00;0.80;;;;;;;7.41;92.70;95939.44;4978135;28;20072;-62
2021/05/16 00:55:39;;;;;;;1.08;0.70;;;;;;;7.39;92.92;95940.97;4982175;28;20046;-61
2021/05/16 00:58:06;;;;;;;0.82;0.70;;;;;;;7.44;92.19;95940.66;4974089;28;20061;-61
2021/05/16 01:00:39;;;;;;;1.00;0.65;;;;;;;7.71;92.65;95930.56;4979133;28;20049;-62
2021/05/16 01:03:05;;;;;;;2.13;0.80;;;;;;;7.78;92.13;95930.66;4957594;28;20039;-61
2021/05/16 01:05:31;;;;;;;0.93;0.68;;;;;;;7.79;92.94;95924.03;4964089;28;20062;-62
2021/05/16 01:07:56;;;;;;;2.42;0.80;;;;;;;7.78;93.50;95919.75;4978695;28;20408;-61
2021/05/16 01:10:22;;;;;;;1.27;0.60;;;;;;;7.72;93.02;95917.72;4960418;28;20888;-62
2021/05/16 01:12:51;;;;;;;1.33;0.60;;;;;;;7.73;92.95;95922.81;4987470;28;20509;-60
2021/05/16 01:15:20;;;;;;;1.75;0.60;;;;;;;7.79;93.52;95923.28;4976754;28;20039;-60
2021/05/16 01:17:47;;;;;;;0.98;0.77;;;;;;;7.95;93.67;95925.84;4983177;28;20411;-61
2021/05/16 01:20:20;;;;;;;1.10;0.80;;;;;;;8.08;94.04;95913.53;4977352;28;20120;-61
2021/05/16 01:22:59;;;;;;;1.98;0.90;;;;;;;7.86;93.65;95915.19;4982565;28;20038;-59
2021/05/16 01:25:26;;;;;;;1.27;0.70;;;;;;;7.98;94.14;95917.69;4983966;28;20551;-61
2021/05/16 01:27:51;;;;;;;1.08;0.65;;;;;;;8.10;93.94;95911.22;4990832;28;20053;-61
2021/05/16 01:30:18;;;;;;;1.42;0.70;;;;;;;8.18;93.12;95909.41;4973385;28;20046;-61
2021/05/16 01:32:44;;;;;;;1.35;0.75;;;;;;;7.92;92.35;95910.97;4991375;28;20053;-60
2021/05/16 01:35:11;;;;;;;0.93;0.77;;;;;;;7.97;92.74;95907.94;4992302;28;20039;-60
2021/05/16 01:37:36;;;;;;;0.68;0.60;;;;;;;8.16;93.34;95904.31;4982710;28;20172;-60
2021/05/16 01:40:04;;;;;;;4.68;0.77;;;;;;;8.26;93.06;95900.13;4978164;28;20526;-61
2021/05/16 01:42:30;;;;;;;1.75;0.90;;;;;;;8.12;92.98;95908.94;4984259;28;20054;-62
2021/05/16 01:45:01;;;;;;;4.22;0.90;;;;;;;8.04;93.22;95899.06;4985518;28;20536;-59
2021/05/16 01:47:27;;;;;;;4.00;0.90;;;;;;;7.82;93.38;95904.25;4976670;28;20053;-62
2021/05/16 01:49:57;;;;;;;3.83;0.70;;;;;;;7.89;94.46;95909.00;4984713;28;20047;-62
2021/05/16 01:52:26;;;;;;;;;;;;;;;8.00;93.84;95917.34;4981526;28;20600;-60
2021/05/16 01:54:52;;;;;;;2.50;0.90;;;;;;;7.84;93.22;95906.59;4983379;28;19961;-59
2021/05/16 01:57:20;;;;;;;2.15;0.60;;;;;;;7.80;94.38;95898.38;4975482;28;20496;-62
2021/05/16 01:59:46;;;;;;;2.85;0.70;;;;;;;7.77;93.82;95903.78;4977397;28;20788;-60
2021/05/16 02:02:12;;;;;;;2.05;1.30;;;;;;;7.58;93.45;95899.19;4956771;28;20141;-60
2021/05/16 02:04:37;;;;;;;0.90;0.70;;;;;;;7.60;94.21;95894.97;4971611;28;20791;-59
2021/05/16 02:07:03;;;;;;;0.82;0.80;;;;;;;7.74;94.35;95902.59;4980279;28;20061;-62
2021/05/16 02:09:29;;;;;;;1.13;0.68;;;;;;;7.65;93.97;95893.84;4980954;28;20120;-62
2021/05/16 02:11:55;;;;;;;4.13;2.22;;;;;;;7.50;95.43;95892.09;4982628;28;20484;-61
2021/05/16 02:14:27;;;;;;;1.08;0.90;;;;;;;7.49;96.22;95896.75;4977036;28;20053;-61
2021/05/16 02:16:53;;;;;;;1.30;0.82;;;;;;;7.44;96.66;95897.06;4993066;28;20042;-58
2021/05/16 02:19:19;;;;;;;2.88;1.42;;;;;;;7.43;96.65;95898.97;4986737;28;20070;-60
2021/05/16 02:21:44;;;;;;;1.77;1.10;;;;;;;7.48;96.35;95895.16;4992905;28;20042;-62
2021/05/16 02:24:10;;;;;;;1.70;1.00;;;;;;;7.45;96.67;95902.16;4978967;28;20042;-58
2021/05/16 02:26:36;;;;;;;2.10;1.00;;;;;;;7.48;96.51;95906.06;4962458;28;20109;-59
2021/05/16 02:29:03;;;;;;;3.78;0.90;;;;;;;7.59;96.88;95898.84;4961765;28;20050;-62
2021/05/16 02:31:28;;;;;;;2.53;0.80;;;;;;;7.70;96.75;95899.00;4960618;28;20070;-62
2021/05/16 02:33:53;;;;;;;1.30;0.85;;;;;;;7.65;96.79;95902.03;4984597;28;20054;-60
2021/05/16 02:36:19;;;;;;;1.13;0.80;;;;;;;7.75;96.58;95898.69;4974588;28;20046;-61
2021/05/16 02:38:44;;;;;;;2.45;1.10;;;;;;;7.83;96.11;95907.75;4978431;28;20047;-62
2021/05/16 02:41:10;;;;;;;1.50;1.02;;;;;;;7.96;96.48;95906.38;4975877;28;20100;-62
2021/05/16 02:43:35;;;;;;;2.13;0.90;;;;;;;7.93;96.02;95901.66;4979121;28;20193;-59
2021/05/16 02:46:01;;;;;;;2.45;0.77;;;;;;;7.81;95.76;95899.16;4981999;28;20100;-59
2021/05/16 02:48:26;;;;;;;1.10;0.93;;;;;;;7.69;95.67;95900.16;4975338;28;20570;-61
2021/05/16 02:50:52;;;;;;;2.65;0.90;;;;;;;7.62;96.26;95897.34;4961830;28;20112;-60
2021/05/16 02:53:20;;;;;;;1.50;1.17;;;;;;;7.59;96.85;95898.06;4975604;28;20078;-61
2021/05/16 02:55:47;;;;;;;1.75;1.00;;;;;;;7.55;97.46;95899.94;4981144;28;20053;-61
2021/05/16 02:58:13;;;;;;;1.63;1.10;;;;;;;7.56;97.92;95894.13;4975939;28;20049;-61
2021/05/16 03:00:39;;;;;;;2.58;1.10;;;;;;;7.50;98.00;95890.13;4980052;28;20038;-60
2021/05/16 03:03:05;;;;;;;1.88;1.27;;;;;;;7.40;99.17;95888.84;4955494;28;20137;-60
2021/05/16 03:05:30;;;;;;;1.52;1.05;;;;;;;7.41;99.73;95889.59;4971334;28;20078;-60
2021/05/16 03:07:56;;;;;;;3.03;0.85;;;;;;;7.35;99.41;95889.13;4979772;28;20077;-57
2021/05/16 03:10:22;;;;;;;1.67;1.20;;;;;;;7.37;100.00;95881.38;4976136;28;21459;-62
2021/05/16 03:12:47;;;;;;;1.80;1.00;;;;;;;7.50;99.70;95886.63;4979675;28;20825;-59
2021/05/16 03:15:14;;;;;;;2.38;1.20;;;;;;;7.28;100.00;95884.34;4975299;28;20565;-60
2021/05/16 03:17:40;;;;;;;1.70;0.93;;;;;;;7.20;100.00;95874.50;4977779;28;20046;-61
2021/05/16 03:20:06;;;;;;;1.30;0.85;;;;;;;7.19;100.00;95872.16;4984375;28;20058;-61
2021/05/16 03:22:32;;;;;;;2.92;1.13;;;;;;;7.30;100.00;95873.09;4987132;28;20042;-61
2021/05/16 03:24:58;;;;;;;1.35;0.90;;;;;;;7.38;100.00;95871.25;4981241;28;20046;-60
2021/05/16 03:27:23;;;;;;;1.35;1.00;;;;;;;7.39;100.00;95875.56;4991473;28;20053;-60
2021/05/16 03:29:49;;;;;;;1.70;1.00;;;;;;;7.38;100.00;95877.53;4980118;28;20042;-61
2021/05/16 03:32:14;;;;;;;2.00;0.80;;;;;;;7.41;99.99;95876.75;4975285;28;20046;-60
2021/05/16 03:34:40;;;;;;;2.17;1.00;;;;;;;7.40;99.05;95871.69;4980879;28;20057;-60
2021/05/16 03:37:05;;;;;;;1.98;1.10;;;;;;;7.28;99.41;95873.47;4977277;28;20385;-61
2021/05/16 03:39:31;;;;;;;2.13;1.20;;;;;;;7.32;100.00;95872.75;4980546;28;20376;-62
2021/05/16 03:41:56;;;;;;;1.52;1.35;;;;;;;7.31;100.00;95866.50;4980791;28;20045;-61
2021/05/16 03:44:23;;;;;;;3.10;1.02;;;;;;;7.30;100.00;95866.88;4976305;28;20076;-61
2021/05/16 03:46:49;;;;;;;1.92;1.10;;;;;;;7.12;100.00;95861.91;4978882;28;20054;-61
2021/05/16 03:49:16;;;;;;;3.53;1.05;;;;;;;7.06;100.00;95857.94;4975064;28;20057;-61
2021/05/16 03:51:43;;;;;;;2.50;1.02;;;;;;;7.05;100.00;95859.09;4983914;28;20038;-61
2021/05/16 03:54:15;;;;;;;1.25;0.90;;;;;;;7.04;100.00;95865.66;4979582;28;20565;-60
2021/05/16 03:56:40;;;;;;;3.85;1.52;;;;;;;7.19;100.00;95867.47;4984936;28;20100;-62
2021/05/16 03:59:05;;;;;;;1.35;0.93;;;;;;;7.16;100.00;95862.75;4979261;28;20035;-60
2021/05/16 04:01:31;;;;;;;4.60;1.02;;;;;;;7.17;100.00;95867.06;4984701;28;20053;-63
2021/05/16 04:03:57;;;;;;;3.33;1.48;;;;;;;7.19;100.00;95867.47;4995694;28;20046;-62
2021/05/16 04:06:23;;;;;;;1.65;0.95;;;;;;;7.40;100.00;95875.22;4987898;28;20277;-62
2021/05/16 04:08:49;;;;;;;3.15;0.80;;;;;;;7.75;100.00;95874.16;4989495;28;20042;-62
2021/05/16 04:11:15;;;;;;;2.15;0.70;;;;;;;8.09;100.00;95876.16;4982586;28;20092;-61
2021/05/16 04:13:40;;;;;;;1.40;0.98;;;;;;;8.32;98.78;95865.13;4993787;28;20050;-62
2021/05/16 04:16:05;;;;;;;1.83;0.90;;;;;;;8.47;96.56;95877.03;4988828;28;20066;-61
2021/05/16 04:18:31;;;;;;;2.28;0.82;;;;;;;8.45;95.82;95873.91;4993257;28;20034;-58
2021/05/16 04:20:57;;;;;;;1.65;0.95;;;;;;;8.38;94.67;95882.75;4981213;28;20038;-59
2021/05/16 04:23:22;;;;;;;4.03;0.80;;;;;;;8.38;95.26;95871.84;4978319;28;20161;-58
2021/05/16 04:25:48;;;;;;;3.00;0.93;;;;;;;8.19;95.83;95883.66;4983520;28;20057;-60
2021/05/16 04:28:14;;;;;;;2.45;0.90;;;;;;;8.31;95.74;95874.47;4979510;28;20042;-62
2021/05/16 04:30:39;;;;;;;2.13;0.73;;;;;;;8.43;95.07;95887.91;4983463;28;20491;-59
2021/05/16 04:33:04;;;;;;;3.38;0.82;;;;;;;8.56;94.76;95886.47;4979021;28;20057;-60
2021/05/16 04:35:30;;;;;;;2.15;0.98;;;;;;;8.40;93.66;95885.88;4983066;28;20069;-61
2021/05/16 04:37:55;;;;;;;0.75;0.70;;;;;;;8.55;94.23;95878.66;4983424;28;20213;-60
2021/05/16 04:40:21;;;;;;;4.03;0.93;;;;;;;8.50;92.70;95881.72;4980595;28;20089;-61
2021/05/16 04:42:46;;;;;;;1.08;0.90;;;;;;;8.53;93.44;95887.22;4984491;28;20046;-62
2021/05/16 04:45:12;;;;;;;2.42;1.02;;;;;;;9.04;93.02;95890.47;4978381;28;20510;-62
2021/05/16 04:47:37;;;;;;;1.65;0.60;;;;;;;9.62;88.69;95886.28;4984639;28;20042;-61
2021/05/16 04:50:03;;;;;;;3.85;0.75;;;;;;;9.82;86.24;95895.75;4980135;28;20450;-62
2021/05/16 04:52:29;;;;;;;2.25;0.90;;;;;;;10.15;86.00;95899.47;4982378;28;20483;-59
2021/05/16 04:54:54;;;;;;;2.47;0.93;;;;;;;10.19;82.82;95894.00;4979721;28;20042;-61
2021/05/16 04:57:21;;;;;;;1.48;0.77;;;;;;;10.03;83.15;95883.38;4977297;28;20046;-60
2021/05/16 04:59:49;;;;;;;6.10;1.42;;;;;;;9.44;88.80;95892.38;4983706;28;20121;-61
2021/05/16 05:02:15;;;;;;;1.45;0.98;;;;;;;9.70;87.32;95882.41;4974308;28;20073;-60
2021/05/16 05:04:40;;;;;;;1.38;0.95;;;;;;;10.87;87.36;95883.31;4980624;28;20754;-61
2021/05/16 05:07:06;;;;;;;2.28;0.73;;;;;;;13.89;72.10;95894.03;4978811;28;20101;-60
2021/05/16 05:09:33;;;;;;;1.73;0.77;;;;;;;14.30;67.95;95895.97;4981465;28;20402;-61
2021/05/16 05:11:58;;;;;;;1.40;0.57;;;;;;;15.30;63.42;95887.59;4976211;28;20050;-61
2021/05/16 05:14:24;;;;;;;0.73;0.43;;;;;;;16.99;58.76;95887.31;4977420;28;20049;-61
2021/05/16 05:16:49;;;;;;;1.48;0.50;;;;;;;17.09;56.15;95878.03;4982349;28;20056;-61
2021/05/16 05:19:14;;;;;;;1.08;0.40;;;;;;;15.91;58.98;95872.84;4978249;28;20042;-61
2021/05/16 05:21:40;;;;;;;2.08;0.50;;;;;;;15.23;61.30;95879.44;4982019;28;20065;-60
2021/05/16 05:24:06;;;;;;;1.23;0.50;;;;;;;15.61;61.52;95862.66;4977657;28;20082;-60
2021/05/16 05:26:31;;;;;;;1.13;0.52;;;;;;;17.34;55.21;95860.03;4982543;28;20396;-60
2021/05/16 05:28:56;;;;;;;1.38;0.50;;;;;;;18.11;50.67;95860.53;4983154;28;20042;-63
2021/05/16 05:31:22;;;;;;;1.23;0.40;;;;;;;18.24;49.54;95863.34;4974137;28;20058;-61
2021/05/16 05:33:47;;;;;;;0.70;0.30;;;;;;;18.88;48.40;95855.22;4982054;28;20507;-62
2021/05/16 05:36:13;;;;;;;0.73;0.30;;;;;;;20.23;44.80;95859.63;4976637;28;20049;-61
2021/05/16 05:38:38;;;;;;;1.60;0.40;;;;;;;21.67;44.99;95865.41;4982657;28;20050;-60
2021/05/16 05:41:04;;;;;;;1.08;0.35;;;;;;;21.68;41.37;95855.78;4978115;28;20046;-63
2021/05/16 05:43:29;;;;;;;1.25;0.20;;;;;;;21.08;43.32;95854.16;4982097;28;20476;-62
2021/05/16 05:45:55;;;;;;;0.77;0.40;;;;;;;19.79;44.61;95860.31;4983067;28;20407;-62
2021/05/16 05:48:20;;;;;;;0.60;0.20;;;;;;;18.20;48.40;95852.34;4977546;28;20216;-63
2021/05/16 05:50:46;;;;;;;1.63;0.30;;;;;;;18.73;47.19;95849.31;4980077;28;20050;-61
2021/05/16 05:53:11;;;;;;;1.75;0.50;;;;;;;18.12;52.04;95854.56;4977502;28;20491;-62
2021/05/16 05:55:36;;;;;;;1.77;0.40;;;;;;;19.32;48.52;95852.69;4981301;28;20042;-62
2021/05/16 05:58:02;;;;;;;1.05;0.25;;;;;;;20.89;43.91;95844.97;4979873;28;20042;-63
2021/05/16 06:00:30;;;;;;;1.05;0.90;;;;;;;21.50;42.92;95846.16;4979805;28;20077;-63
2021/05/16 06:02:57;;;;;;;2.92;0.65;;;;;;;22.41;40.49;95843.94;4984745;28;20169;-62
2021/05/16 06:05:23;;;;;;;0.68;0.20;;;;;;;23.56;37.49;95843.50;4978698;28;20141;-61
2021/05/16 06:07:48;;;;;;;1.70;0.40;;;;;;;23.07;40.18;95851.75;4981973;28;20038;-60
2021/05/16 06:10:13;;;;;;;0.75;0.30;;;;;;;22.01;39.00;95860.81;4976178;28;20381;-60
2021/05/16 06:12:42;;;;;;;2.47;0.40;;;;;;;19.42;46.75;95857.13;4978466;28;20541;-61
2021/05/16 06:15:08;;;;;;;1.20;0.40;;;;;;;19.64;44.84;95856.44;4975642;28;20046;-60
2021/05/16 06:17:33;;;;;;;1.75;0.43;;;;;;;19.79;45.17;95851.19;4980178;28;20097;-61
2021/05/16 06:19:58;;;;;;;1.05;0.40;;;;;;;19.60;44.63;95861.31;4980088;28;20053;-61
2021/05/16 06:22:24;;;;;;;1.55;0.28;;;;;;;19.99;45.17;95854.50;4975092;28;20038;-61
2021/05/16 06:24:49;;;;;;;2.72;0.38;;;;;;;20.75;46.65;95860.19;4980567;28;20063;-59
2021/05/16 06:27:14;;;;;;;1.88;0.30;;;;;;;22.28;39.29;95852.50;4973557;28;20047;-62
2021/05/16 06:29:40;;;;;;;0.90;0.17;;;;;;;22.93;37.38;95846.03;4981370;28;20046;-61
2021/05/16 06:32:08;;;;;;;3.00;0.57;;;;;;;20.72;40.16;95849.94;4975903;28;20129;-62
2021/05/16 06:34:34;;;;;;;2.13;0.57;;;;;;;24.09;34.54;95836.50;4980024;28;20045;-61
2021/05/16 06:37:02;;;;;;;1.75;0.28;;;;;;;25.14;32.67;95850.16;4978806;28;20488;-61
2021/05/16 06:39:28;;;;;;;1.30;0.28;;;;;;;26.87;30.61;95851.44;4974587;28;20054;-62
2021/05/16 06:41:54;;;;;;;1.27;0.20;;;;;;;26.54;29.67;95851.81;4980953;28;20483;-62
2021/05/16 06:44:19;;;;;;;0.95;0.28;;;;;;;25.46;29.82;95850.44;4975759;28;20096;-62
2021/05/16 06:46:44;;;;;;;1.88;0.40;;;;;;;25.32;32.01;95854.03;4979723;28;20802;-62
2021/05/16 06:49:10;;;;;;;1.73;0.38;;;;;;;25.43;31.44;95854.19;4982550;28;20077;-61
2021/05/16 06:51:38;;;;;;;1.13;0.30;;;;;;;25.10;31.58;95854.41;4988893;28;20069;-62
2021/05/16 06:54:04;;;;;;;3.22;0.43;;;;;;;23.98;35.06;95859.41;4986920;28;20227;-62
2021/05/16 06:56:29;;;;;;;3.97;0.50;;;;;;;21.00;37.57;95850.88;4989388;28;20046;-62
2021/05/16 06:58:55;;;;;;;3.88;0.57;;;;;;;20.08;40.65;95850.22;4986395;28;20038;-60
2021/05/16 07:01:21;;;;;;;2.42;0.35;;;;;;;21.05;39.74;95852.28;4975278;28;20475;-61
2021/05/16 07:03:46;;;;;;;2.22;0.63;;;;;;;21.86;38.11;95852.25;4981192;28;20451;-60
2021/05/16 07:06:12;;;;;;;2.90;0.75;;;;;;;23.11;33.56;95851.59;4975279;28;20051;-61
2021/05/16 07:08:37;;;;;;;5.40;1.00;;;;;;;22.70;33.71;95853.84;4981092;28;20150;-60
2021/05/16 07:11:03;;;;;;;3.70;0.77;;;;;;;21.69;34.89;95855.31;4978248;28;20529;-61
2021/05/16 07:13:28;;;;;;;3.03;0.75;;;;;;;20.21;38.58;95848.97;4977611;28;20050;-60
2021/05/16 07:15:54;;;;;;;1.42;0.38;;;;;;;22.40;34.73;95841.63;4980503;28;20042;-61
2021/05/16 07:18:20;;;;;;;4.22;0.70;;;;;;;21.44;37.61;95839.59;4974984;28;20050;-62
2021/05/16 07:20:45;;;;;;;2.15;0.52;;;;;;;21.16;37.63;95836.72;4981885;28;20073;-62
2021/05/16 07:23:11;;;;;;;3.15;0.75;;;;;;;20.72;38.32;95831.25;4973632;28;20133;-62
2021/05/16 07:25:37;;;;;;;6.47;0.82;;;;;;;20.49;39.03;95845.59;4980473;28;20484;-61
2021/05/16 07:28:02;;;;;;;4.18;0.68;;;;;;;20.05;41.30;95849.13;4982660;28;20046;-63
2021/05/16 07:30:28;;;;;;;4.72;1.33;;;;;;;19.16;42.17;95855.56;4980456;28;20054;-60
2021/05/16 07:32:54;;;;;;;3.65;0.77;;;;;;;17.78;45.59;95855.78;4983744;28;20038;-62
2021/05/16 07:35:19;;;;;;;6.55;1.25;;;;;;;17.38;46.02;95853.22;4979281;28;20400;-62
2021/05/16 07:37:46;;;;;;;4.78;0.82;;;;;;;17.14;47.34;95851.81;4983395;28;20389;-59
2021/05/16 07:40:13;;;;;;;3.03;0.90;;;;;;;17.06;47.46;95856.75;4982815;28;20050;-59
2021/05/16 07:42:38;;;;;;;3.13;0.70;;;;;;;16.28;49.31;95859.94;4986065;28;20604;-59
2021/05/16 07:45:06;;;;;;;5.53;1.10;;;;;;;16.29;51.25;95857.94;4981494;28;20050;-63
2021/05/16 07:47:32;;;;;;;9.60;5.63;;;;;;;15.59;52.35;95868.63;4982711;28;20084;-63
2021/05/16 07:49:57;;;;;;;2.88;0.68;;;;;;;15.68;52.30;95857.84;4977256;28;20129;-62
2021/05/16 07:52:22;;;;;;;2.80;1.10;;;;;;;15.76;51.91;95857.75;4982700;28;20440;-58
2021/05/16 07:54:48;;;;;;;2.58;0.75;;;;;;;15.97;52.22;95854.59;4985781;28;20389;-58
2021/05/16 07:57:13;;;;;;;2.90;0.80;;;;;;;16.90;50.12;95853.94;4980568;28;20522;-61
2021/05/16 07:59:39;;;;;;;2.03;0.77;;;;;;;17.55;49.42;95856.75;4982392;28;20101;-63
2021/05/16 08:02:05;;;;;;;1.60;0.63;;;;;;;18.46;45.48;95852.47;4979400;28;20042;-62
2021/05/16 08:04:30;;;;;;;8.00;1.65;;;;;;;18.27;46.22;95860.47;4985126;28;20046;-61
2021/05/16 08:06:56;;;;;;;2.42;0.73;;;;;;;18.08;46.00;95864.97;4983600;28;20531;-60
2021/05/16 08:09:25;;;;;;;4.43;1.60;;;;;;;18.21;46.61;95855.94;4977263;28;21105;-62
2021/05/16 08:11:51;;;;;;;2.77;1.00;;;;;;;17.72;47.92;95846.47;4982650;28;20061;-62
2021/05/16 08:14:17;;;;;;;1.65;0.60;;;;;;;16.87;48.69;95844.53;4976991;28;20136;-62
2021/05/16 08:16:43;;;;;;;4.13;0.77;;;;;;;17.25;49.09;95843.25;4983337;28;20078;-62
2021/05/16 08:19:09;;;;;;;2.95;0.60;;;;;;;18.57;45.58;95849.38;4984526;28;20145;-62
2021/05/16 08:21:35;;;;;;;3.60;0.73;;;;;;;19.19;44.09;95844.34;4987898;28;20550;-61
2021/05/16 08:24:00;;;;;;;3.03;0.90;;;;;;;19.59;42.98;95851.44;4984532;28;20141;-61
2021/05/16 08:26:27;;;;;;;3.20;0.70;;;;;;;20.43;39.76;95848.19;4977956;28;20129;-61
2021/05/16 08:28:52;;;;;;;1.90;0.88;;;;;;;19.98;41.35;95847.38;4984355;28;20561;-61
2021/05/16 08:31:17;;;;;;;4.13;0.70;;;;;;;18.87;43.40;95846.13;4979160;28;20042;-61
2021/05/16 08:33:43;;;;;;;2.35;1.10;;;;;;;18.60;45.66;95842.94;4982766;28;20054;-61
2021/05/16 08:36:08;;;;;;;3.08;0.85;;;;;;;19.21;43.49;95836.38;4978672;28;20430;-62
2021/05/16 08:38:35;;;;;;;3.22;0.85;;;;;;;19.88;42.17;95837.41;4982016;28;20034;-61
2021/05/16 08:41:01;;;;;;;3.47;0.60;;;;;;;20.62;41.04;95830.44;4982916;28;20811;-61
2021/05/16 08:43:26;;;;;;;4.28;0.75;;;;;;;19.94;42.83;95829.28;4977408;28;20050;-62
2021/05/16 08:45:52;;;;;;;3.83;0.85;;;;;;;19.83;42.43;95832.41;4982870;28;20068;-60
2021/05/16 08:48:17;;;;;;;3.55;0.63;;;;;;;19.26;43.61;95840.59;4976324;28;20497;-59
2021/05/16 08:50:43;;;;;;;4.35;0.90;;;;;;;18.95;44.34;95838.38;4980561;28;20058;-64
2021/05/16 08:53:08;;;;;;;3.13;0.60;;;;;;;19.16;43.21;95842.50;4978166;28;20074;-62
2021/05/16 08:55:36;;;;;;;5.22;0.88;;;;;;;17.85;45.50;95834.69;4983200;28;20089;-63
2021/05/16 08:58:03;;;;;;;1.90;0.60;;;;;;;18.40;45.98;95835.59;4981649;28;20046;-62
2021/05/16 09:00:30;;;;;;;7.15;0.90;;;;;;;18.30;46.38;95823.56;4983610;28;20042;-63
2021/05/16 09:03:09;;;;;;;3.50;0.90;;;;;;;19.22;43.48;95820.50;4988252;28;20105;-62
2021/05/16 09:05:37;;;;;;;14.73;6.43;;;;;;;20.21;41.74;95812.81;4997355;28;20046;-61
2021/05/16 09:08:04;;;;;;;3.75;0.98;;;;;;;20.41;42.23;95812.47;4981845;28;20042;-62
2021/05/16 09:10:29;;;;;;;6.75;0.90;;;;;;;19.47;43.90;95819.69;4984051;28;20046;-63
2021/05/16 09:13:19;;;;;;;3.80;0.60;;;;;;;20.53;41.54;95824.78;4964722;28;20053;-61
2021/05/16 09:16:00;;;;;;;;;;;;;;;18.18;45.28;95821.53;4983712;28;20480;-61
2021/05/16 09:18:35;;;;;;;3.03;0.70;;;;;;;18.92;45.02;95828.16;4975086;28;19925;-62
2021/05/16 09:21:29;;;;;;;1.83;0.68;;;;;;;19.04;45.18;95826.63;4975615;28;20096;-62
2021/05/16 09:24:04;;;;;;;3.85;0.85;;;;;;;19.00;44.23;95812.84;4982525;28;20096;-63
2021/05/16 09:26:35;;;;;;;4.97;1.25;;;;;;;18.73;43.34;95818.78;4982630;28;20063;-61
2021/05/16 09:29:22;;;;;;;4.03;0.75;;;;;;;18.77;43.71;95819.47;4982264;28;20121;-63
2021/05/16 09:31:49;;;;;;;2.38;0.80;;;;;;;17.92;46.60;95820.66;4978466;28;20197;-63
2021/05/16 09:34:15;;;;;;;1.73;0.65;;;;;;;18.61;43.84;95822.31;4973657;28;20064;-62
2021/05/16 09:36:42;;;;;;;3.85;1.60;;;;;;;18.26;43.49;95819.38;4982436;28;20487;-61
2021/05/16 09:39:28;;;;;;;4.00;0.75;;;;;;;17.42;45.98;95811.63;4977898;28;20090;-63
2021/05/16 09:41:58;;;;;;;5.55;0.80;;;;;;;17.95;45.09;95812.25;4985382;28;20208;-63
2021/05/16 09:44:39;;;;;;;4.43;0.80;;;;;;;18.48;43.64;95805.66;4979852;28;20046;-63
2021/05/16 09:47:10;;;;;;;5.63;0.80;;;;;;;19.10;42.08;95819.28;4980582;28;20054;-63
2021/05/16 09:49:35;;;;;;;4.05;0.90;;;;;;;18.54;42.58;95810.19;4980506;28;20678;-64
2021/05/16 09:52:14;;;;;;;3.63;1.00;;;;;;;18.61;43.77;95808.47;4981553;28;20046;-64
2021/05/16 09:54:53;;;;;;;4.32;0.70;;;;;;;19.09;42.39;95793.53;4981402;28;20065;-63
2021/05/16 09:57:19;;;;;;;3.35;0.70;;;;;;;19.40;41.39;95792.16;4978423;28;20042;-63
2021/05/16 09:59:45;;;;;;;6.00;0.80;;;;;;;20.36;38.77;95779.69;4982601;28;20043;-63
2021/05/16 10:02:13;;;;;;;3.10;1.05;;;;;;;20.10;39.17;95779.06;4977501;28;20081;-61
2021/05/16 10:04:39;;;;;;;3.83;0.82;;;;;;;19.60;40.78;95778.00;4979277;28;20042;-63
2021/05/16 10:07:07;;;;;;;2.40;0.65;;;;;;;19.40;41.09;95770.72;4976298;28;20096;-60
2021/05/16 10:09:32;;;;;;;5.50;0.75;;;;;;;19.54;41.46;95771.47;4978036;28;20133;-63
2021/05/16 10:11:57;;;;;;;3.25;0.95;;;;;;;20.06;39.96;95770.09;4978898;28;20137;-63
2021/05/16 10:14:28;;;;;;;3.00;0.88;;;;;;;20.15;37.74;95778.50;4974184;28;20594;-60
2021/05/16 10:16:54;;;;;;;3.55;0.70;;;;;;;20.17;38.62;95769.69;4975750;28;20069;-62
2021/05/16 10:19:25;;;;;;;3.75;0.80;;;;;;;19.93;39.48;95761.78;4974326;28;20140;-62
2021/05/16 10:22:03;;;;;;;3.55;0.70;;;;;;;20.03;39.61;95765.44;4977046;28;20122;-62
2021/05/16 10:24:40;;;;;;;8.10;1.10;;;;;;;19.89;39.16;95755.59;4977833;28;20132;-62
2021/05/16 10:27:22;;;;;;;5.18;0.93;;;;;;;19.75;40.80;95758.88;4976238;28;20051;-61
2021/05/16 10:29:52;;;;;;;2.72;0.82;;;;;;;18.71;43.34;95760.22;4980168;28;20127;-62
2021/05/16 10:32:31;;;;;;;3.70;0.90;;;;;;;18.26;42.43;95764.69;4973918;28;20181;-60
2021/05/16 10:34:57;;;;;;;2.57;1.13;;;;;;;18.40;42.66;95762.72;4980337;28;20487;-62
2021/05/16 10:37:57;;;;;;;4.75;0.50;;;;;;;17.43;45.27;95755.06;4972226;28;20538;-59
2021/05/16 10:40:22;;;;;;;;;;;;;;;18.20;45.40;95747.03;4976552;28;20330;-63
2021/05/16 10:42:50;;;;;;;2.25;0.80;;;;;;;18.29;43.50;95746.41;4981184;28;20446;-61
2021/05/16 10:45:21;;;;;;;2.00;0.60;;;;;;;19.02;40.29;95749.34;4975644;28;20046;-62
2021/05/16 10:47:50;;;;;;;3.22;0.65;;;;;;;19.28;42.11;95725.13;4964194;28;20054;-62
2021/05/16 10:50:19;;;;;;;3.70;1.00;;;;;;;19.33;42.48;95725.75;4976350;28;20085;-63
2021/05/16 10:52:59;;;;;;;3.65;1.45;;;;;;;19.57;40.47;95734.47;4979969;28;20042;-62
2021/05/16 10:55:30;;;;;;;3.20;1.02;;;;;;;18.97;40.96;95721.41;4975991;28;20046;-62
2021/05/16 10:57:56;;;;;;;7.82;2.15;;;;;;;18.75;40.95;95724.81;4979173;28;20142;-62
2021/05/16 11:00:26;;;;;;;4.90;0.70;;;;;;;18.46;41.92;95722.16;4971222;28;21029;-60
2021/05/16 11:03:11;;;;;;;3.03;0.85;;;;;;;17.90;42.03;95717.84;4977620;28;20089;-61
2021/05/16 11:05:40;;;;;;;2.47;0.55;;;;;;;18.33;43.45;95714.59;4980602;28;20053;-62
2021/05/16 11:08:09;;;;;;;4.85;1.33;;;;;;;18.11;42.08;95721.97;4975417;28;20046;-60
2021/05/16 11:10:38;;;;;;;2.88;1.50;;;;;;;18.20;43.72;95729.66;4981238;28;20074;-62
2021/05/16 11:13:14;;;;;;;8.45;4.10;;;;;;;17.61;43.20;95724.13;4976989;28;20050;-61
2021/05/16 11:16:07;;;;;;;7.40;2.05;;;;;;;17.45;45.03;95718.63;4996400;28;20119;-61
2021/05/16 11:18:33;;;;;;;2.65;0.98;;;;;;;16.90;43.70;95719.19;4976524;28;20042;-61
2021/05/16 11:21:03;;;;;;;9.30;1.80;;;;;;;16.84;44.60;95715.41;4997644;28;20034;-62
2021/05/16 11:23:31;;;;;;;5.28;0.82;;;;;;;16.90;46.48;95712.91;4977810;28;20488;-62
2021/05/16 11:26:00;;;;;;;9.90;2.65;;;;;;;16.49;47.67;95709.47;4987960;28;20062;-62
2021/05/16 11:28:27;;;;;;;5.13;1.13;;;;;;;16.23;47.71;95712.00;4983636;28;20050;-62
2021/05/16 11:30:55;;;;;;;4.00;0.80;;;;;;;16.20;47.88;95723.13;4994721;28;20058;-62
2021/05/16 11:33:28;;;;;;;6.13;0.90;;;;;;;15.98;48.43;95731.09;4980389;28;20051;-60
2021/05/16 11:35:55;;;;;;;3.08;0.98;;;;;;;16.09;48.13;95730.88;4981561;28;20065;-60
2021/05/16 11:38:28;;;;;;;4.22;1.50;;;;;;;15.88;48.79;95729.31;4976772;28;20248;-60